sensor_id;sensor_type;location;lat;lon;timestamp;pressure;altitude;pressure_sealevel;temperature;humidity
23433;BME280;41331;45.412;10.992;2024-03-08T00:00:31;100984.31;;;10.19;94.60
23433;BME280;41331;45.412;10.992;2024-03-08T00:03:00;100982.81;;;10.13;94.40
23433;BME280;41331;45.412;10.992;2024-03-08T00:05:30;100976.84;;;10.25;94.92
23433;BME280;41331;45.412;10.992;2024-03-08T00:07:58;100984.88;;;10.30;93.78
23433;BME280;41331;45.412;10.992;2024-03-08T00:10:27;100975.41;;;10.27;94.72
23433;BME280;41331;45.412;10.992;2024-03-08T00:12:56;100974.78;;;10.30;93.93
23433;BME280;41331;45.412;10.992;2024-03-08T00:15:25;100973.81;;;10.26;94.31
23433;BME280;41331;45.412;10.992;2024-03-08T00:17:53;100980.53;;;10.29;94.20
23433;BME280;41331;45.412;10.992;2024-03-08T00:20:21;100980.84;;;10.27;93.83
23433;BME280;41331;45.412;10.992;2024-03-08T00:22:49;100973.00;;;10.26;94.04
23433;BME280;41331;45.412;10.992;2024-03-08T00:25:18;100967.91;;;10.33;92.05
23433;BME280;41331;45.412;10.992;2024-03-08T00:27:46;100969.97;;;10.27;92.24
23433;BME280;41331;45.412;10.992;2024-03-08T00:30:17;100968.09;;;10.36;92.36
23433;BME280;41331;45.412;10.992;2024-03-08T00:32:45;100964.72;;;10.31;93.20
23433;BME280;41331;45.412;10.992;2024-03-08T00:35:13;100968.38;;;10.26;92.22
23433;BME280;41331;45.412;10.992;2024-03-08T00:37:41;100974.47;;;10.32;92.88
23433;BME280;41331;45.412;10.992;2024-03-08T00:40:14;100965.66;;;10.26;92.71
23433;BME280;41331;45.412;10.992;2024-03-08T00:42:42;100962.44;;;10.24;93.81
23433;BME280;41331;45.412;10.992;2024-03-08T00:45:11;100971.50;;;10.20;92.41
23433;BME280;41331;45.412;10.992;2024-03-08T00:47:39;100967.00;;;10.15;93.06
23433;BME280;41331;45.412;10.992;2024-03-08T00:50:07;100965.88;;;10.16;92.90
23433;BME280;41331;45.412;10.992;2024-03-08T00:52:37;100965.56;;;10.18;93.41
23433;BME280;41331;45.412;10.992;2024-03-08T00:55:05;100960.00;;;10.23;92.63
23433;BME280;41331;45.412;10.992;2024-03-08T00:57:33;100973.91;;;10.21;92.01
23433;BME280;41331;45.412;10.992;2024-03-08T01:00:03;100967.56;;;10.26;91.90
23433;BME280;41331;45.412;10.992;2024-03-08T01:02:31;100968.38;;;10.26;92.01
23433;BME280;41331;45.412;10.992;2024-03-08T01:05:01;100956.88;;;10.29;91.86
23433;BME280;41331;45.412;10.992;2024-03-08T01:07:30;100961.13;;;10.22;92.75
23433;BME280;41331;45.412;10.992;2024-03-08T01:09:58;100960.94;;;10.18;93.27
23433;BME280;41331;45.412;10.992;2024-03-08T01:12:26;100953.75;;;10.22;92.88
23433;BME280;41331;45.412;10.992;2024-03-08T01:14:54;100951.34;;;10.21;93.06
23433;BME280;41331;45.412;10.992;2024-03-08T01:17:22;100955.09;;;10.25;92.27
23433;BME280;41331;45.412;10.992;2024-03-08T01:19:50;100948.03;;;10.24;93.12
23433;BME280;41331;45.412;10.992;2024-03-08T01:22:17;100953.28;;;10.20;93.78
23433;BME280;41331;45.412;10.992;2024-03-08T01:24:45;100945.47;;;10.27;93.88
23433;BME280;41331;45.412;10.992;2024-03-08T01:27:14;100941.88;;;10.09;93.45
23433;BME280;41331;45.412;10.992;2024-03-08T01:29:42;100937.22;;;10.10;94.25
23433;BME280;41331;45.412;10.992;2024-03-08T01:32:10;100931.78;;;10.10;94.16
23433;BME280;41331;45.412;10.992;2024-03-08T01:34:38;100932.13;;;10.17;94.21
23433;BME280;41331;45.412;10.992;2024-03-08T01:37:06;100931.81;;;10.19;94.69
23433;BME280;41331;45.412;10.992;2024-03-08T01:39:34;100923.66;;;10.19;93.80
23433;BME280;41331;45.412;10.992;2024-03-08T01:42:02;100933.16;;;9.99;94.85
23433;BME280;41331;45.412;10.992;2024-03-08T01:44:30;100932.53;;;10.02;94.37
23433;BME280;41331;45.412;10.992;2024-03-08T01:46:59;100931.38;;;9.94;94.52
23433;BME280;41331;45.412;10.992;2024-03-08T01:49:27;100932.66;;;9.97;94.53
23433;BME280;41331;45.412;10.992;2024-03-08T01:51:55;100928.66;;;9.94;94.56
23433;BME280;41331;45.412;10.992;2024-03-08T01:54:26;100931.47;;;9.80;95.68
23433;BME280;41331;45.412;10.992;2024-03-08T01:56:54;100928.44;;;9.82;95.88
23433;BME280;41331;45.412;10.992;2024-03-08T01:59:23;100924.97;;;9.90;95.85
23433;BME280;41331;45.412;10.992;2024-03-08T02:01:51;100926.75;;;9.95;95.62
23433;BME280;41331;45.412;10.992;2024-03-08T02:04:19;100927.69;;;9.90;95.66
23433;BME280;41331;45.412;10.992;2024-03-08T02:06:48;100922.38;;;9.85;96.07
23433;BME280;41331;45.412;10.992;2024-03-08T02:09:16;100916.88;;;9.76;96.50
23433;BME280;41331;45.412;10.992;2024-03-08T02:11:45;100913.91;;;9.86;97.05
23433;BME280;41331;45.412;10.992;2024-03-08T02:14:13;100915.94;;;9.81;96.44
23433;BME280;41331;45.412;10.992;2024-03-08T02:16:41;100914.47;;;9.75;97.48
23433;BME280;41331;45.412;10.992;2024-03-08T02:19:09;100915.69;;;9.69;98.61
23433;BME280;41331;45.412;10.992;2024-03-08T02:21:37;100911.03;;;9.60;99.46
23433;BME280;41331;45.412;10.992;2024-03-08T02:24:06;100916.28;;;9.57;99.87
23433;BME280;41331;45.412;10.992;2024-03-08T02:26:33;100922.50;;;9.57;100.00
23433;BME280;41331;45.412;10.992;2024-03-08T02:29:01;100915.19;;;9.36;100.00
23433;BME280;41331;45.412;10.992;2024-03-08T02:31:29;100925.41;;;9.39;100.00
23433;BME280;41331;45.412;10.992;2024-03-08T02:33:57;100913.75;;;9.38;100.00
23433;BME280;41331;45.412;10.992;2024-03-08T02:36:25;100917.97;;;9.44;100.00
23433;BME280;41331;45.412;10.992;2024-03-08T02:38:53;100917.97;;;9.44;100.00
23433;BME280;41331;45.412;10.992;2024-03-08T02:41:23;100921.97;;;9.47;100.00
23433;BME280;41331;45.412;10.992;2024-03-08T02:43:50;100915.84;;;9.41;100.00
23433;BME280;41331;45.412;10.992;2024-03-08T02:46:18;100911.41;;;9.45;100.00
23433;BME280;41331;45.412;10.992;2024-03-08T02:48:49;100915.38;;;9.39;100.00
23433;BME280;41331;45.412;10.992;2024-03-08T02:51:16;100921.09;;;9.38;100.00
23433;BME280;41331;45.412;10.992;2024-03-08T02:53:44;100915.91;;;9.50;99.57
23433;BME280;41331;45.412;10.992;2024-03-08T02:56:12;100915.53;;;9.43;99.07
23433;BME280;41331;45.412;10.992;2024-03-08T02:58:40;100916.16;;;9.40;99.13
23433;BME280;41331;45.412;10.992;2024-03-08T03:01:08;100914.19;;;9.54;99.16
23433;BME280;41331;45.412;10.992;2024-03-08T03:03:37;100912.41;;;9.49;98.85
23433;BME280;41331;45.412;10.992;2024-03-08T03:06:05;100905.34;;;9.48;98.83
23433;BME280;41331;45.412;10.992;2024-03-08T03:08:34;100904.66;;;9.43;99.15
23433;BME280;41331;45.412;10.992;2024-03-08T03:11:03;100903.78;;;9.33;100.00
23433;BME280;41331;45.412;10.992;2024-03-08T03:13:31;100903.66;;;9.39;98.92
23433;BME280;41331;45.412;10.992;2024-03-08T03:15:58;100899.66;;;9.36;99.61
23433;BME280;41331;45.412;10.992;2024-03-08T03:18:26;100910.09;;;9.43;99.80
23433;BME280;41331;45.412;10.992;2024-03-08T03:20:54;100912.34;;;9.41;99.28
23433;BME280;41331;45.412;10.992;2024-03-08T03:23:22;100917.31;;;9.47;98.97
23433;BME280;41331;45.412;10.992;2024-03-08T03:25:50;100912.66;;;9.39;97.77
23433;BME280;41331;45.412;10.992;2024-03-08T03:28:19;100917.75;;;9.41;97.62
23433;BME280;41331;45.412;10.992;2024-03-08T03:30:51;100910.84;;;9.34;96.58
23433;BME280;41331;45.412;10.992;2024-03-08T03:33:20;100909.88;;;9.30;95.78
23433;BME280;41331;45.412;10.992;2024-03-08T03:35:48;100911.59;;;9.26;95.76
23433;BME280;41331;45.412;10.992;2024-03-08T03:38:16;100906.94;;;9.27;96.42
23433;BME280;41331;45.412;10.992;2024-03-08T03:40:44;100905.09;;;9.36;96.11
23433;BME280;41331;45.412;10.992;2024-03-08T03:43:13;100913.19;;;9.27;95.31
23433;BME280;41331;45.412;10.992;2024-03-08T03:45:41;100908.38;;;9.24;94.65
23433;BME280;41331;45.412;10.992;2024-03-08T03:48:09;100912.25;;;9.32;94.09
23433;BME280;41331;45.412;10.992;2024-03-08T03:50:38;100907.28;;;9.25;95.44
23433;BME280;41331;45.412;10.992;2024-03-08T03:53:08;100910.19;;;9.29;95.61
23433;BME280;41331;45.412;10.992;2024-03-08T03:55:37;100909.41;;;9.37;93.39
23433;BME280;41331;45.412;10.992;2024-03-08T03:58:08;100912.66;;;9.39;93.56
23433;BME280;41331;45.412;10.992;2024-03-08T04:00:39;100907.63;;;9.32;92.99
23433;BME280;41331;45.412;10.992;2024-03-08T04:03:07;100909.41;;;9.37;93.00
23433;BME280;41331;45.412;10.992;2024-03-08T04:05:36;100902.72;;;9.34;92.97
23433;BME280;41331;45.412;10.992;2024-03-08T04:08:04;100902.84;;;9.29;92.86
23433;BME280;41331;45.412;10.992;2024-03-08T04:10:32;100908.56;;;9.28;92.55
23433;BME280;41331;45.412;10.992;2024-03-08T04:13:00;100896.00;;;9.18;92.37
23433;BME280;41331;45.412;10.992;2024-03-08T04:15:28;100904.34;;;9.22;91.88
23433;BME280;41331;45.412;10.992;2024-03-08T04:17:55;100907.75;;;9.05;91.86
23433;BME280;41331;45.412;10.992;2024-03-08T04:20:25;100904.22;;;9.04;92.83
23433;BME280;41331;45.412;10.992;2024-03-08T04:22:53;100903.78;;;9.11;92.29
23433;BME280;41331;45.412;10.992;2024-03-08T04:25:21;100899.97;;;9.12;93.43
23433;BME280;41331;45.412;10.992;2024-03-08T04:27:49;100902.47;;;9.08;93.11
23433;BME280;41331;45.412;10.992;2024-03-08T04:30:17;100894.97;;;9.05;92.29
23433;BME280;41331;45.412;10.992;2024-03-08T04:32:46;100896.13;;;9.13;91.72
23433;BME280;41331;45.412;10.992;2024-03-08T04:35:15;100897.44;;;9.16;91.99
23433;BME280;41331;45.412;10.992;2024-03-08T04:37:43;100893.13;;;9.15;91.88
23433;BME280;41331;45.412;10.992;2024-03-08T04:40:10;100894.41;;;9.17;91.74
23433;BME280;41331;45.412;10.992;2024-03-08T04:42:39;100892.44;;;9.09;91.56
23433;BME280;41331;45.412;10.992;2024-03-08T04:45:09;100904.59;;;9.12;92.26
23433;BME280;41331;45.412;10.992;2024-03-08T04:47:39;100891.56;;;9.00;92.11
23433;BME280;41331;45.412;10.992;2024-03-08T04:50:08;100901.50;;;9.04;92.49
23433;BME280;41331;45.412;10.992;2024-03-08T04:52:36;100899.41;;;9.01;92.90
23433;BME280;41331;45.412;10.992;2024-03-08T04:55:04;100894.44;;;9.03;92.82
23433;BME280;41331;45.412;10.992;2024-03-08T04:57:33;100893.75;;;8.98;92.18
23433;BME280;41331;45.412;10.992;2024-03-08T05:00:03;100899.31;;;8.93;92.21
23433;BME280;41331;45.412;10.992;2024-03-08T05:02:38;100896.78;;;8.96;92.11
23433;BME280;41331;45.412;10.992;2024-03-08T05:05:08;100901.75;;;8.94;92.42
23433;BME280;41331;45.412;10.992;2024-03-08T05:07:43;100904.94;;;8.96;91.71
23433;BME280;41331;45.412;10.992;2024-03-08T05:10:13;100892.28;;;8.92;91.83
23433;BME280;41331;45.412;10.992;2024-03-08T05:12:45;100903.34;;;8.95;91.29
23433;BME280;41331;45.412;10.992;2024-03-08T05:15:13;100904.34;;;8.99;91.28
23433;BME280;41331;45.412;10.992;2024-03-08T05:17:42;100892.50;;;8.81;91.60
23433;BME280;41331;45.412;10.992;2024-03-08T05:20:11;100906.66;;;8.92;92.14
23433;BME280;41331;45.412;10.992;2024-03-08T05:22:41;100906.75;;;8.87;91.89
23433;BME280;41331;45.412;10.992;2024-03-08T05:25:11;100911.91;;;8.89;91.53
23433;BME280;41331;45.412;10.992;2024-03-08T05:27:40;100908.00;;;8.81;92.37
23433;BME280;41331;45.412;10.992;2024-03-08T05:30:08;100922.25;;;8.87;92.91
23433;BME280;41331;45.412;10.992;2024-03-08T05:32:43;100921.22;;;8.96;92.12
23433;BME280;41331;45.412;10.992;2024-03-08T05:35:12;100904.06;;;8.87;91.45
23433;BME280;41331;45.412;10.992;2024-03-08T05:37:40;100920.06;;;8.89;91.62
23433;BME280;41331;45.412;10.992;2024-03-08T05:40:08;100920.22;;;8.92;91.48
23433;BME280;41331;45.412;10.992;2024-03-08T05:42:43;100922.16;;;8.78;91.81
23433;BME280;41331;45.412;10.992;2024-03-08T05:45:12;100930.41;;;8.87;91.74
23433;BME280;41331;45.412;10.992;2024-03-08T05:47:40;100932.00;;;8.88;91.78
23433;BME280;41331;45.412;10.992;2024-03-08T05:50:08;100920.34;;;8.87;91.66
23433;BME280;41331;45.412;10.992;2024-03-08T05:52:38;100931.50;;;8.86;92.05
23433;BME280;41331;45.412;10.992;2024-03-08T05:55:07;100932.31;;;8.86;92.69
23433;BME280;41331;45.412;10.992;2024-03-08T05:57:37;100931.09;;;8.92;92.57
23433;BME280;41331;45.412;10.992;2024-03-08T06:00:08;100942.56;;;8.89;92.54
23433;BME280;41331;45.412;10.992;2024-03-08T06:02:39;100937.53;;;8.82;92.38
23433;BME280;41331;45.412;10.992;2024-03-08T06:05:10;100941.78;;;8.75;93.13
23433;BME280;41331;45.412;10.992;2024-03-08T06:07:38;100942.78;;;8.79;93.59
23433;BME280;41331;45.412;10.992;2024-03-08T06:10:09;100940.06;;;8.79;93.58
23433;BME280;41331;45.412;10.992;2024-03-08T06:12:38;100940.56;;;8.81;92.92
23433;BME280;41331;45.412;10.992;2024-03-08T06:15:10;100938.06;;;8.85;93.69
23433;BME280;41331;45.412;10.992;2024-03-08T06:17:38;100946.00;;;8.67;93.65
23433;BME280;41331;45.412;10.992;2024-03-08T06:20:06;100954.25;;;8.76;93.24
23433;BME280;41331;45.412;10.992;2024-03-08T06:22:41;100955.25;;;8.80;93.89
23433;BME280;41331;45.412;10.992;2024-03-08T06:25:09;100956.84;;;8.81;93.26
23433;BME280;41331;45.412;10.992;2024-03-08T06:27:39;100963.38;;;8.94;92.85
23433;BME280;41331;45.412;10.992;2024-03-08T06:30:07;100960.06;;;8.83;93.20
23433;BME280;41331;45.412;10.992;2024-03-08T06:32:37;100961.47;;;8.80;92.73
23433;BME280;41331;45.412;10.992;2024-03-08T06:35:06;100964.41;;;8.70;93.65
23433;BME280;41331;45.412;10.992;2024-03-08T06:37:34;100966.69;;;8.77;93.76
23433;BME280;41331;45.412;10.992;2024-03-08T06:40:02;100962.06;;;8.77;94.15
23433;BME280;41331;45.412;10.992;2024-03-08T06:42:35;100958.56;;;8.77;94.76
23433;BME280;41331;45.412;10.992;2024-03-08T06:45:03;100963.97;;;8.91;94.34
23433;BME280;41331;45.412;10.992;2024-03-08T06:47:36;100959.16;;;8.88;93.31
23433;BME280;41331;45.412;10.992;2024-03-08T06:50:05;100963.78;;;8.73;93.89
23433;BME280;41331;45.412;10.992;2024-03-08T06:52:33;100971.31;;;8.76;93.89
23433;BME280;41331;45.412;10.992;2024-03-08T06:55:01;100969.22;;;8.60;94.48
23433;BME280;41331;45.412;10.992;2024-03-08T06:57:29;100966.63;;;8.54;95.01
23433;BME280;41331;45.412;10.992;2024-03-08T06:59:57;100961.09;;;8.60;95.67
23433;BME280;41331;45.412;10.992;2024-03-08T07:02:25;100969.34;;;8.54;95.58
23433;BME280;41331;45.412;10.992;2024-03-08T07:04:53;100969.03;;;8.56;95.46
23433;BME280;41331;45.412;10.992;2024-03-08T07:07:20;100979.19;;;8.64;95.59
23433;BME280;41331;45.412;10.992;2024-03-08T07:09:49;100983.72;;;8.69;96.10
23433;BME280;41331;45.412;10.992;2024-03-08T07:12:16;100973.84;;;8.73;95.63
23433;BME280;41331;45.412;10.992;2024-03-08T07:14:44;100979.09;;;8.69;95.88
23433;BME280;41331;45.412;10.992;2024-03-08T07:17:13;100988.41;;;8.49;96.67
23433;BME280;41331;45.412;10.992;2024-03-08T07:19:41;100993.34;;;8.61;97.07
23433;BME280;41331;45.412;10.992;2024-03-08T07:22:09;100980.78;;;8.65;96.41
23433;BME280;41331;45.412;10.992;2024-03-08T07:24:37;100975.78;;;8.59;96.89
23433;BME280;41331;45.412;10.992;2024-03-08T07:27:25;100981.59;;;8.66;95.88
23433;BME280;41331;45.412;10.992;2024-03-08T07:29:53;100976.75;;;8.76;96.07
23433;BME280;41331;45.412;10.992;2024-03-08T07:32:35;100987.41;;;8.73;95.44
23433;BME280;41331;45.412;10.992;2024-03-08T07:35:03;100993.53;;;8.78;96.19
23433;BME280;41331;45.412;10.992;2024-03-08T07:37:32;100991.22;;;8.86;94.87
23433;BME280;41331;45.412;10.992;2024-03-08T07:40:00;100989.00;;;8.88;95.32
23433;BME280;41331;45.412;10.992;2024-03-08T07:42:28;100997.25;;;8.96;94.37
23433;BME280;41331;45.412;10.992;2024-03-08T07:44:57;100988.41;;;8.77;94.34
23433;BME280;41331;45.412;10.992;2024-03-08T07:47:24;100999.25;;;8.77;93.99
23433;BME280;41331;45.412;10.992;2024-03-08T07:49:54;101001.69;;;8.65;94.42
23433;BME280;41331;45.412;10.992;2024-03-08T07:52:22;101001.38;;;8.66;94.63
23433;BME280;41331;45.412;10.992;2024-03-08T07:54:49;101002.50;;;8.65;94.41
23433;BME280;41331;45.412;10.992;2024-03-08T07:57:17;101005.81;;;8.76;93.62
23433;BME280;41331;45.412;10.992;2024-03-08T07:59:45;101001.78;;;8.73;92.42
23433;BME280;41331;45.412;10.992;2024-03-08T08:02:13;101000.06;;;8.77;93.08
23433;BME280;41331;45.412;10.992;2024-03-08T08:04:41;101000.88;;;8.78;92.69
23433;BME280;41331;45.412;10.992;2024-03-08T08:07:09;101001.97;;;8.77;92.91
23433;BME280;41331;45.412;10.992;2024-03-08T08:09:37;101008.22;;;8.77;92.45
23433;BME280;41331;45.412;10.992;2024-03-08T08:12:05;101008.63;;;8.85;92.09
23433;BME280;41331;45.412;10.992;2024-03-08T08:14:34;101001.66;;;8.92;92.13
23433;BME280;41331;45.412;10.992;2024-03-08T08:17:02;101006.41;;;9.00;91.35
23433;BME280;41331;45.412;10.992;2024-03-08T08:19:32;101002.38;;;8.98;91.97
23433;BME280;41331;45.412;10.992;2024-03-08T08:22:04;100997.94;;;9.02;91.68
23433;BME280;41331;45.412;10.992;2024-03-08T08:24:31;100990.38;;;9.13;91.33
23433;BME280;41331;45.412;10.992;2024-03-08T08:26:59;100993.97;;;9.22;90.69
23433;BME280;41331;45.412;10.992;2024-03-08T08:29:28;100991.47;;;9.25;89.88
23433;BME280;41331;45.412;10.992;2024-03-08T08:31:58;100991.84;;;9.32;88.71
23433;BME280;41331;45.412;10.992;2024-03-08T08:34:29;100979.13;;;9.42;88.68
23433;BME280;41331;45.412;10.992;2024-03-08T08:36:57;100978.03;;;9.88;86.62
23433;BME280;41331;45.412;10.992;2024-03-08T08:39:25;100976.28;;;10.14;84.20
23433;BME280;41331;45.412;10.992;2024-03-08T08:41:53;100981.88;;;10.40;81.21
23433;BME280;41331;45.412;10.992;2024-03-08T08:44:22;100985.69;;;10.30;81.82
23433;BME280;41331;45.412;10.992;2024-03-08T08:46:50;100983.53;;;11.76;77.21
23433;BME280;41331;45.412;10.992;2024-03-08T08:49:23;100989.44;;;11.09;75.66
23433;BME280;41331;45.412;10.992;2024-03-08T08:51:52;100984.47;;;10.54;78.85
23433;BME280;41331;45.412;10.992;2024-03-08T08:54:22;100984.00;;;10.52;80.11
23433;BME280;41331;45.412;10.992;2024-03-08T08:56:52;100980.22;;;10.70;80.44
23433;BME280;41331;45.412;10.992;2024-03-08T08:59:21;100978.06;;;10.89;78.59
23433;BME280;41331;45.412;10.992;2024-03-08T09:01:50;100969.78;;;12.37;72.30
23433;BME280;41331;45.412;10.992;2024-03-08T09:04:19;100949.16;;;15.41;59.64
23433;BME280;41331;45.412;10.992;2024-03-08T09:06:49;100941.88;;;16.68;53.65
23433;BME280;41331;45.412;10.992;2024-03-08T09:09:16;100946.47;;;17.15;49.66
23433;BME280;41331;45.412;10.992;2024-03-08T09:11:44;100952.59;;;17.63;49.53
23433;BME280;41331;45.412;10.992;2024-03-08T09:14:14;100946.81;;;18.60;46.24
23433;BME280;41331;45.412;10.992;2024-03-08T09:16:42;100944.34;;;19.04;45.04
23433;BME280;41331;45.412;10.992;2024-03-08T09:19:10;100947.78;;;17.99;46.87
23433;BME280;41331;45.412;10.992;2024-03-08T09:21:38;100951.31;;;18.45;45.09
23433;BME280;41331;45.412;10.992;2024-03-08T09:24:07;100960.06;;;15.25;52.59
23433;BME280;41331;45.412;10.992;2024-03-08T09:26:35;100969.88;;;13.71;59.27
23433;BME280;41331;45.412;10.992;2024-03-08T09:29:04;100981.19;;;12.98;64.07
23433;BME280;41331;45.412;10.992;2024-03-08T09:31:34;100981.28;;;11.70;69.42
23433;BME280;41331;45.412;10.992;2024-03-08T09:34:02;100978.91;;;11.51;71.41
23433;BME280;41331;45.412;10.992;2024-03-08T09:36:30;100973.56;;;10.85;74.76
23433;BME280;41331;45.412;10.992;2024-03-08T09:39:00;100970.00;;;10.76;75.90
23433;BME280;41331;45.412;10.992;2024-03-08T09:41:28;100989.91;;;10.45;76.24
23433;BME280;41331;45.412;10.992;2024-03-08T09:43:58;100986.25;;;10.50;78.15
23433;BME280;41331;45.412;10.992;2024-03-08T09:46:27;100991.88;;;10.62;79.16
23433;BME280;41331;45.412;10.992;2024-03-08T09:48:55;100989.38;;;10.83;78.28
23433;BME280;41331;45.412;10.992;2024-03-08T09:51:27;100985.69;;;10.79;77.10
23433;BME280;41331;45.412;10.992;2024-03-08T09:53:56;100990.34;;;10.78;78.09
23433;BME280;41331;45.412;10.992;2024-03-08T09:56:26;100993.84;;;10.79;78.16
23433;BME280;41331;45.412;10.992;2024-03-08T09:58:55;100988.19;;;10.58;78.37
23433;BME280;41331;45.412;10.992;2024-03-08T10:01:55;100990.47;;;10.65;79.23
23433;BME280;41331;45.412;10.992;2024-03-08T10:04:28;100993.53;;;10.72;79.46
23433;BME280;41331;45.412;10.992;2024-03-08T10:06:59;100993.03;;;10.70;77.63
23433;BME280;41331;45.412;10.992;2024-03-08T10:09:28;100990.97;;;10.75;78.26
23433;BME280;41331;45.412;10.992;2024-03-08T10:11:59;100989.41;;;10.92;77.25
23433;BME280;41331;45.412;10.992;2024-03-08T10:14:27;100987.00;;;10.81;78.12
23433;BME280;41331;45.412;10.992;2024-03-08T10:16:55;100994.22;;;10.86;79.13
23433;BME280;41331;45.412;10.992;2024-03-08T10:19:28;100993.41;;;10.94;79.39
23433;BME280;41331;45.412;10.992;2024-03-08T10:21:58;100997.28;;;11.02;76.87
23433;BME280;41331;45.412;10.992;2024-03-08T10:24:27;100999.94;;;10.76;77.17
23433;BME280;41331;45.412;10.992;2024-03-08T10:27:01;100991.81;;;10.93;78.48
23433;BME280;41331;45.412;10.992;2024-03-08T10:29:33;100998.13;;;11.11;76.88
23433;BME280;41331;45.412;10.992;2024-03-08T10:32:01;101003.50;;;10.85;77.06
23433;BME280;41331;45.412;10.992;2024-03-08T10:34:30;100996.31;;;10.98;77.69
23433;BME280;41331;45.412;10.992;2024-03-08T10:37:03;100998.19;;;10.80;76.58
23433;BME280;41331;45.412;10.992;2024-03-08T10:39:36;101000.38;;;10.60;77.93
23433;BME280;41331;45.412;10.992;2024-03-08T10:42:04;101005.81;;;10.60;77.33
23433;BME280;41331;45.412;10.992;2024-03-08T10:44:40;101005.53;;;10.71;78.97
23433;BME280;41331;45.412;10.992;2024-03-08T10:47:18;101003.63;;;10.71;77.72
23433;BME280;41331;45.412;10.992;2024-03-08T10:49:54;101000.53;;;10.55;78.41
23433;BME280;41331;45.412;10.992;2024-03-08T10:52:23;101007.59;;;10.34;79.93
23433;BME280;41331;45.412;10.992;2024-03-08T10:54:52;101006.00;;;10.33;81.15
23433;BME280;41331;45.412;10.992;2024-03-08T10:57:22;101008.25;;;10.31;82.38
23433;BME280;41331;45.412;10.992;2024-03-08T10:59:51;101006.22;;;10.14;82.88
23433;BME280;41331;45.412;10.992;2024-03-08T11:02:25;101015.66;;;10.17;85.08
23433;BME280;41331;45.412;10.992;2024-03-08T11:04:55;101014.19;;;10.10;83.57
23433;BME280;41331;45.412;10.992;2024-03-08T11:07:25;101021.66;;;9.82;86.60
23433;BME280;41331;45.412;10.992;2024-03-08T11:09:55;101007.91;;;9.79;86.07
23433;BME280;41331;45.412;10.992;2024-03-08T11:12:27;101013.81;;;9.81;86.91
23433;BME280;41331;45.412;10.992;2024-03-08T11:15:10;101011.84;;;9.73;88.29
23433;BME280;41331;45.412;10.992;2024-03-08T11:20:10;100995.50;;;10.18;87.08
23433;BME280;41331;45.412;10.992;2024-03-08T11:22:54;100990.97;;;10.75;82.18
23433;BME280;41331;45.412;10.992;2024-03-08T11:25:36;100987.34;;;10.97;80.99
23433;BME280;41331;45.412;10.992;2024-03-08T11:28:11;100986.25;;;10.50;83.51
23433;BME280;41331;45.412;10.992;2024-03-08T11:33:29;100973.41;;;10.90;79.94
23433;BME280;41331;45.412;10.992;2024-03-08T11:36:08;100974.53;;;11.06;79.01
23433;BME280;41331;45.412;10.992;2024-03-08T11:38:42;100984.03;;;11.44;77.22
23433;BME280;41331;45.412;10.992;2024-03-08T11:41:21;100977.41;;;12.52;74.12
23433;BME280;41331;45.412;10.992;2024-03-08T11:44:01;100968.13;;;12.44;72.04
23433;BME280;41331;45.412;10.992;2024-03-08T11:46:29;100975.81;;;12.51;71.47
23433;BME280;41331;45.412;10.992;2024-03-08T11:48:57;100972.31;;;11.95;73.72
23433;BME280;41331;45.412;10.992;2024-03-08T11:51:26;100970.16;;;12.09;72.20
23433;BME280;41331;45.412;10.992;2024-03-08T11:53:54;100957.41;;;12.69;72.52
23433;BME280;41331;45.412;10.992;2024-03-08T11:56:23;100963.78;;;12.05;72.38
23433;BME280;41331;45.412;10.992;2024-03-08T11:58:55;100964.78;;;11.75;73.70
23433;BME280;41331;45.412;10.992;2024-03-08T12:01:25;100963.97;;;11.83;73.73
23433;BME280;41331;45.412;10.992;2024-03-08T12:03:54;100953.56;;;11.50;74.99
23433;BME280;41331;45.412;10.992;2024-03-08T12:06:23;100953.31;;;12.54;70.82
23433;BME280;41331;45.412;10.992;2024-03-08T12:08:51;100942.69;;;12.91;69.05
23433;BME280;41331;45.412;10.992;2024-03-08T12:11:18;100944.31;;;12.83;69.19
23433;BME280;41331;45.412;10.992;2024-03-08T12:13:51;100945.53;;;12.65;68.65
23433;BME280;41331;45.412;10.992;2024-03-08T12:16:20;100943.81;;;12.22;71.63
23433;BME280;41331;45.412;10.992;2024-03-08T12:18:51;100934.94;;;11.70;72.85
23433;BME280;41331;45.412;10.992;2024-03-08T12:21:21;100941.66;;;11.89;73.73
23433;BME280;41331;45.412;10.992;2024-03-08T12:24:08;100929.75;;;12.11;72.02
23433;BME280;41331;45.412;10.992;2024-03-08T12:26:37;100933.94;;;12.00;72.36
23433;BME280;41331;45.412;10.992;2024-03-08T12:29:24;100938.75;;;12.03;73.36
23433;BME280;41331;45.412;10.992;2024-03-08T12:31:55;100934.78;;;11.75;72.82
23433;BME280;41331;45.412;10.992;2024-03-08T12:34:26;100933.00;;;11.87;74.01
23433;BME280;41331;45.412;10.992;2024-03-08T12:36:55;100921.00;;;11.71;74.16
23433;BME280;41331;45.412;10.992;2024-03-08T12:39:23;100914.88;;;11.91;74.04
23433;BME280;41331;45.412;10.992;2024-03-08T12:41:56;100914.78;;;11.36;75.38
23433;BME280;41331;45.412;10.992;2024-03-08T12:44:29;100913.50;;;11.25;74.80
23433;BME280;41331;45.412;10.992;2024-03-08T12:46:57;100909.00;;;11.29;75.16
23433;BME280;41331;45.412;10.992;2024-03-08T12:49:27;100913.19;;;11.35;75.73
23433;BME280;41331;45.412;10.992;2024-03-08T12:51:55;100906.78;;;11.05;75.50
23433;BME280;41331;45.412;10.992;2024-03-08T12:54:23;100900.69;;;11.25;74.95
23433;BME280;41331;45.412;10.992;2024-03-08T12:56:51;100913.16;;;10.92;76.84
23433;BME280;41331;45.412;10.992;2024-03-08T12:59:22;100899.72;;;11.30;76.09
23433;BME280;41331;45.412;10.992;2024-03-08T13:01:52;100896.97;;;11.04;75.49